Time;durP1;ratioP1;P1;durP2;ratioP2;P2;SDS_P1;SDS_P2;PMS_P1;PMS_P2;Temp;Humidity;BMP_temperature;BMP_pressure;BME280_temperature;BME280_humidity;BME280_pressure;Samples;Min_cycle;Max_cycle;Signal;HPM_P1;HPM_P2
2022/04/20 00:00:27;;;;;;;3.88;2.75;;;;;;;;;;5060390;28;20058;-88
2022/04/20 00:02:53;;;;;;;5.25;3.55;;;;;;;;;;5063468;28;20067;-89
2022/04/20 00:05:20;;;;;;;7.43;3.35;;;;;;;;;;5068318;28;20524;-88
2022/04/20 00:07:46;;;;;;;5.53;3.15;;;;;;;;;;5066824;28;20040;-88
2022/04/20 00:10:13;;;;;;;4.93;3.20;;;;;;;;;;5066497;28;20045;-88
2022/04/20 00:12:39;;;;;;;5.28;3.50;;;;;;;;;;5066257;28;20061;-88
2022/04/20 00:15:08;;;;;;;4.05;2.78;;;;;;;;;;5057055;28;20084;-88
2022/04/20 00:17:35;;;;;;;4.70;3.25;;;;;;;;;;5061309;28;20063;-88
2022/04/20 00:20:02;;;;;;;4.82;3.17;;;;;;;;;;5055319;28;20059;-88
2022/04/20 00:22:28;;;;;;;5.28;3.10;;;;;;;;;;5054262;28;20044;-88
2022/04/20 00:24:55;;;;;;;5.07;3.22;;;;;;;;;;5065459;28;20056;-88
2022/04/20 00:27:21;;;;;;;6.93;3.00;;;;;;;;;;5060207;28;20056;-88
2022/04/20 00:29:48;;;;;;;5.90;3.08;;;;;;;;;;5064214;28;20059;-88
2022/04/20 00:32:16;;;;;;;6.80;3.60;;;;;;;;;;5060543;28;20053;-88
2022/04/20 00:34:42;;;;;;;5.90;3.50;;;;;;;;;;5058077;28;20485;-88
2022/04/20 00:37:09;;;;;;;6.05;3.35;;;;;;;;;;5065954;28;20055;-88
2022/04/20 00:39:37;;;;;;;4.93;3.00;;;;;;;;;;5067841;28;20044;-89
2022/04/20 00:42:04;;;;;;;4.95;3.00;;;;;;;;;;5054946;28;20068;-89
2022/04/20 00:44:31;;;;;;;5.15;3.30;;;;;;;;;;5063092;28;20048;-89
2022/04/20 00:46:58;;;;;;;4.55;3.17;;;;;;;;;;5063098;28;20051;-89
2022/04/20 00:49:27;;;;;;;5.25;2.88;;;;;;;;;;5059043;28;20049;-89
2022/04/20 00:51:56;;;;;;;5.15;4.10;;;;;;;;;;5066413;28;20059;-89
2022/04/20 00:54:22;;;;;;;5.38;3.40;;;;;;;;;;5063102;28;20052;-89
2022/04/20 00:56:49;;;;;;;5.05;3.20;;;;;;;;;;5065448;28;20044;-89
2022/04/20 00:59:16;;;;;;;5.50;3.83;;;;;;;;;;5060787;28;20056;-89
2022/04/20 01:01:43;;;;;;;6.57;3.70;;;;;;;;;;5058796;28;20052;-89
2022/04/20 01:04:10;;;;;;;5.60;3.28;;;;;;;;;;5058184;28;20058;-89
2022/04/20 01:06:38;;;;;;;4.57;3.05;;;;;;;;;;5056072;28;20049;-88
2022/04/20 01:09:05;;;;;;;6.13;3.08;;;;;;;;;;5062936;28;20064;-88
2022/04/20 01:11:31;;;;;;;4.97;3.08;;;;;;;;;;5056240;28;20051;-89
2022/04/20 01:13:58;;;;;;;5.85;3.10;;;;;;;;;;5051701;28;20064;-89
2022/04/20 01:16:25;;;;;;;5.43;3.17;;;;;;;;;;5060390;28;20064;-89
2022/04/20 01:18:52;;;;;;;4.72;3.17;;;;;;;;;;5063703;28;20052;-89
2022/04/20 01:21:22;;;;;;;3.72;2.63;;;;;;;;;;5055575;28;20074;-89
2022/04/20 01:23:48;;;;;;;5.28;3.22;;;;;;;;;;5052850;28;20468;-89
2022/04/20 01:26:15;;;;;;;6.57;3.30;;;;;;;;;;5065712;28;20052;-88
2022/04/20 01:28:45;;;;;;;7.15;3.25;;;;;;;;;;5051107;28;20059;-89
2022/04/20 01:31:14;;;;;;;5.13;3.55;;;;;;;;;;5058491;28;20045;-89
2022/04/20 01:33:41;;;;;;;5.50;3.42;;;;;;;;;;5060748;28;20052;-89
2022/04/20 01:36:08;;;;;;;7.30;3.20;;;;;;;;;;5060610;28;20056;-89
2022/04/20 01:38:37;;;;;;;6.65;3.63;;;;;;;;;;5055313;28;20045;-89
2022/04/20 01:41:03;;;;;;;5.85;3.20;;;;;;;;;;5058334;28;20071;-89
2022/04/20 01:43:30;;;;;;;5.80;3.63;;;;;;;;;;5063282;28;20558;-89
2022/04/20 01:45:56;;;;;;;6.50;3.35;;;;;;;;;;5057503;28;20412;-88
2022/04/20 01:48:23;;;;;;;6.72;3.45;;;;;;;;;;5060374;28;20040;-89
2022/04/20 01:53:40;;;;;;;5.10;2.70;;;;;;;;;;4999523;28;20694;-89
2022/04/20 01:56:07;;;;;;;7.65;2.90;;;;;;;;;;5063852;28;20463;-89
2022/04/20 01:58:34;;;;;;;5.43;3.45;;;;;;;;;;5050376;28;20044;-89
2022/04/20 02:01:01;;;;;;;6.25;2.72;;;;;;;;;;5058926;28;20051;-89
2022/04/20 02:03:26;;;;;;;5.43;2.90;;;;;;;;;;5055592;28;20054;-89
2022/04/20 02:05:53;;;;;;;5.45;4.13;;;;;;;;;;5066372;28;20496;-89
2022/04/20 02:08:19;;;;;;;7.72;3.72;;;;;;;;;;5056551;28;20044;-89
2022/04/20 02:10:48;;;;;;;5.40;2.90;;;;;;;;;;5064745;28;20040;-89
2022/04/20 02:13:14;;;;;;;5.97;3.58;;;;;;;;;;5062155;28;20053;-89
2022/04/20 02:15:41;;;;;;;5.90;3.50;;;;;;;;;;5053558;28;20044;-89
2022/04/20 02:18:17;;;;;;;6.60;4.25;;;;;;;;;;5061305;28;20059;-89
2022/04/20 02:20:44;;;;;;;6.80;3.67;;;;;;;;;;5065327;28;20047;-89
2022/04/20 02:23:10;;;;;;;5.65;3.88;;;;;;;;;;5058665;28;20055;-88
2022/04/20 02:25:37;;;;;;;5.80;4.35;;;;;;;;;;5062655;28;20597;-89
2022/04/20 02:28:05;;;;;;;8.48;4.72;;;;;;;;;;5049602;28;20041;-89
2022/04/20 02:30:31;;;;;;;6.43;3.85;;;;;;;;;;5052603;28;20048;-89
2022/04/20 02:32:58;;;;;;;6.47;3.70;;;;;;;;;;5058114;28;20044;-89
2022/04/20 02:35:26;;;;;;;7.45;4.53;;;;;;;;;;5064655;28;20056;-89
2022/04/20 02:37:53;;;;;;;6.95;4.18;;;;;;;;;;5065732;28;20430;-89
2022/04/20 02:40:19;;;;;;;6.68;4.82;;;;;;;;;;5066674;28;20044;-89
2022/04/20 02:42:47;;;;;;;6.70;4.57;;;;;;;;;;5069327;28;20556;-89
2022/04/20 02:45:16;;;;;;;6.70;4.28;;;;;;;;;;5067537;28;20060;-89
2022/04/20 02:47:43;;;;;;;6.72;4.53;;;;;;;;;;5056777;28;20044;-89
2022/04/20 02:50:10;;;;;;;7.40;5.47;;;;;;;;;;5057578;28;20041;-89
2022/04/20 02:52:36;;;;;;;7.47;4.35;;;;;;;;;;5064121;28;20707;-89
2022/04/20 02:55:03;;;;;;;8.40;4.90;;;;;;;;;;5057828;28;20545;-88
2022/04/20 02:57:30;;;;;;;7.75;5.30;;;;;;;;;;5064732;28;20045;-88
2022/04/20 02:59:56;;;;;;;7.45;4.82;;;;;;;;;;5067250;28;20056;-88
2022/04/20 03:02:24;;;;;;;7.82;4.70;;;;;;;;;;5057007;28;20396;-88
2022/04/20 03:04:51;;;;;;;7.03;4.80;;;;;;;;;;5063839;28;20064;-88
2022/04/20 03:07:17;;;;;;;8.25;4.28;;;;;;;;;;5057776;28;20044;-88
2022/04/20 03:09:44;;;;;;;8.25;4.43;;;;;;;;;;5062644;28;20041;-89
2022/04/20 03:12:10;;;;;;;6.53;4.63;;;;;;;;;;5075054;28;20103;-88
2022/04/20 03:14:37;;;;;;;10.50;4.85;;;;;;;;;;5059467;28;20048;-88
2022/04/20 03:17:04;;;;;;;6.80;4.72;;;;;;;;;;5060746;28;20053;-88
2022/04/20 03:19:32;;;;;;;5.97;4.50;;;;;;;;;;5055065;28;20048;-88
2022/04/20 03:21:58;;;;;;;5.55;3.80;;;;;;;;;;5060361;28;20048;-88
2022/04/20 03:24:25;;;;;;;6.13;4.22;;;;;;;;;;5063277;28;20059;-88
2022/04/20 03:26:51;;;;;;;6.15;4.10;;;;;;;;;;5058158;28;20045;-88
2022/04/20 03:29:18;;;;;;;9.88;5.68;;;;;;;;;;5066304;28;20041;-88
2022/04/20 03:31:45;;;;;;;6.70;4.78;;;;;;;;;;5063499;28;20041;-88
2022/04/20 03:34:11;;;;;;;8.60;4.60;;;;;;;;;;5055808;28;20049;-88
2022/04/20 03:36:39;;;;;;;11.15;5.80;;;;;;;;;;5062212;28;20045;-88
2022/04/20 03:39:06;;;;;;;7.82;5.00;;;;;;;;;;5062416;28;20056;-88
2022/04/20 03:41:32;;;;;;;9.52;5.88;;;;;;;;;;5063058;28;20041;-88
2022/04/20 03:43:59;;;;;;;8.40;5.40;;;;;;;;;;5062916;28;20045;-88
2022/04/20 03:46:25;;;;;;;9.38;5.00;;;;;;;;;;5062978;28;20087;-88
2022/04/20 03:48:52;;;;;;;8.93;5.07;;;;;;;;;;5058344;28;20450;-87
2022/04/20 03:51:19;;;;;;;9.10;5.72;;;;;;;;;;5062329;28;20127;-87
2022/04/20 03:53:47;;;;;;;8.48;5.25;;;;;;;;;;5060731;28;20048;-88
2022/04/20 03:56:14;;;;;;;8.98;5.47;;;;;;;;;;5072330;28;20048;-87
2022/04/20 03:58:40;;;;;;;10.05;6.18;;;;;;;;;;5063728;28;20040;-87
2022/04/20 04:01:07;;;;;;;8.77;5.15;;;;;;;;;;5058571;28;20049;-87
2022/04/20 04:03:35;;;;;;;13.07;6.32;;;;;;;;;;5065109;28;20505;-87
2022/04/20 04:06:02;;;;;;;11.10;7.38;;;;;;;;;;5063205;28;20044;-87
2022/04/20 04:08:29;;;;;;;20.80;9.05;;;;;;;;;;5064308;28;20040;-87
2022/04/20 04:10:57;;;;;;;21.23;8.90;;;;;;;;;;5071007;28;20052;-87
2022/04/20 04:13:24;;;;;;;18.92;9.15;;;;;;;;;;5063780;28;20032;-87
2022/04/20 04:15:50;;;;;;;13.73;8.07;;;;;;;;;;5058490;28;20670;-87
2022/04/20 04:18:20;;;;;;;12.35;8.68;;;;;;;;;;5059517;28;20048;-86
2022/04/20 04:20:47;;;;;;;12.05;8.13;;;;;;;;;;5062474;28;20055;-87
2022/04/20 04:23:13;;;;;;;11.95;7.50;;;;;;;;;;5057699;28;20068;-87
2022/04/20 04:25:40;;;;;;;12.82;8.50;;;;;;;;;;5057608;28;20052;-87
2022/04/20 04:28:08;;;;;;;11.90;7.30;;;;;;;;;;5057375;28;20059;-87
2022/04/20 04:30:34;;;;;;;15.68;8.63;;;;;;;;;;5060263;28;20568;-87
2022/04/20 04:33:01;;;;;;;14.88;7.78;;;;;;;;;;5059132;28;20049;-87
2022/04/20 04:35:28;;;;;;;14.00;8.43;;;;;;;;;;5060631;28;20048;-87
2022/04/20 04:37:54;;;;;;;14.45;8.00;;;;;;;;;;5061153;28;20044;-87
2022/04/20 04:40:21;;;;;;;14.48;8.25;;;;;;;;;;5057601;28;20249;-87
2022/04/20 04:42:47;;;;;;;12.68;8.02;;;;;;;;;;5057275;28;20041;-87
2022/04/20 04:50:50;;;;;;;17.13;10.15;;;;;;;;;;5051651;28;20536;-87
2022/04/20 04:53:17;;;;;;;16.85;8.85;;;;;;;;;;5055264;28;20636;-87
2022/04/20 04:55:43;;;;;;;13.88;9.00;;;;;;;;;;5059620;28;20143;-87
2022/04/20 04:58:10;;;;;;;19.00;10.63;;;;;;;;;;5050815;28;20044;-87
2022/04/20 05:00:38;;;;;;;23.70;12.15;;;;;;;;;;5053553;28;20586;-86
2022/04/20 05:03:04;;;;;;;17.42;10.52;;;;;;;;;;5056078;28;20040;-87
2022/04/20 05:05:31;;;;;;;16.33;9.63;;;;;;;;;;5063032;28;20070;-88
2022/04/20 05:07:58;;;;;;;17.33;10.43;;;;;;;;;;5058682;28;20072;-88
2022/04/20 05:10:24;;;;;;;14.30;9.68;;;;;;;;;;5071514;28;20041;-88
2022/04/20 05:12:53;;;;;;;51.78;24.48;;;;;;;;;;5065141;28;20052;-88
2022/04/20 05:15:19;;;;;;;17.30;10.80;;;;;;;;;;5056451;28;20052;-88
2022/04/20 05:17:50;;;;;;;13.07;9.50;;;;;;;;;;5060341;28;20044;-88
2022/04/20 05:20:19;;;;;;;15.02;8.10;;;;;;;;;;5055451;28;20055;-88
2022/04/20 05:22:45;;;;;;;14.15;9.50;;;;;;;;;;5067846;28;20045;-87
2022/04/20 05:25:12;;;;;;;11.23;8.50;;;;;;;;;;5060879;28;20049;-88
2022/04/20 05:27:38;;;;;;;12.80;9.00;;;;;;;;;;5062499;28;20041;-87
2022/04/20 05:30:10;;;;;;;12.82;9.48;;;;;;;;;;5061192;28;20044;-87
2022/04/20 05:32:37;;;;;;;11.70;7.88;;;;;;;;;;5064786;28;20109;-87
2022/04/20 05:35:06;;;;;;;10.80;7.43;;;;;;;;;;5065801;28;20044;-87
2022/04/20 05:43:01;;;;;;;11.48;7.47;;;;;;;;;;5066363;28;20063;-86
2022/04/20 05:45:27;;;;;;;12.43;8.00;;;;;;;;;;5063532;28;20052;-87
2022/04/20 05:47:54;;;;;;;10.98;7.18;;;;;;;;;;5055537;28;20045;-87
2022/04/20 05:50:22;;;;;;;12.15;7.93;;;;;;;;;;5059341;28;20045;-86
2022/04/20 05:52:48;;;;;;;13.15;7.38;;;;;;;;;;5067152;28;20040;-86
2022/04/20 05:55:15;;;;;;;9.23;6.82;;;;;;;;;;5080047;28;20914;-86
2022/04/20 05:57:42;;;;;;;12.95;7.35;;;;;;;;;;5061113;28;20136;-86
2022/04/20 06:00:09;;;;;;;10.02;6.50;;;;;;;;;;5055122;28;20044;-88
2022/04/20 06:02:36;;;;;;;11.27;6.97;;;;;;;;;;5059230;28;20047;-87
2022/04/20 06:05:02;;;;;;;9.25;6.50;;;;;;;;;;5056467;28;20123;-87
2022/04/20 06:07:30;;;;;;;10.98;7.20;;;;;;;;;;5054468;28;20059;-87
2022/04/20 06:09:57;;;;;;;9.60;6.20;;;;;;;;;;5055876;28;20055;-87
2022/04/20 06:12:23;;;;;;;9.07;6.35;;;;;;;;;;5060222;28;20684;-87
2022/04/20 06:14:50;;;;;;;11.02;6.72;;;;;;;;;;5052996;28;20044;-88
2022/04/20 06:17:16;;;;;;;13.35;7.10;;;;;;;;;;5062847;28;20048;-87
2022/04/20 06:19:43;;;;;;;10.52;6.53;;;;;;;;;;5067513;28;20512;-87
2022/04/20 06:22:09;;;;;;;10.43;6.60;;;;;;;;;;5056183;28;20055;-87
2022/04/20 06:24:37;;;;;;;11.07;6.95;;;;;;;;;;5056246;28;20048;-87
2022/04/20 06:27:05;;;;;;;9.80;6.10;;;;;;;;;;5058282;28;20408;-88
2022/04/20 06:29:32;;;;;;;8.68;6.18;;;;;;;;;;5062220;28;20633;-88
2022/04/20 06:31:58;;;;;;;9.50;5.75;;;;;;;;;;5065047;28;20045;-87
2022/04/20 06:34:25;;;;;;;8.77;5.40;;;;;;;;;;5062472;28;20040;-87
2022/04/20 06:36:51;;;;;;;7.82;5.50;;;;;;;;;;5065916;28;20044;-87
2022/04/20 06:39:18;;;;;;;9.60;5.80;;;;;;;;;;5065739;28;20052;-87
2022/04/20 06:41:45;;;;;;;10.00;6.13;;;;;;;;;;5055808;28;20045;-88
2022/04/20 06:44:12;;;;;;;9.50;5.50;;;;;;;;;;5057540;28;20048;-87
2022/04/20 06:46:38;;;;;;;7.68;5.22;;;;;;;;;;5065308;28;20057;-87
2022/04/20 06:49:06;;;;;;;8.63;5.43;;;;;;;;;;5078253;28;20045;-88
2022/04/20 06:58:31;;;;;;;7.00;5.20;;;;;;;;;;5065052;28;20122;-87
2022/04/20 06:59:47;;;;;;;8.40;5.53;;;;;;;;;;5062140;28;20055;-88
2022/04/20 07:02:14;;;;;;;9.55;5.32;;;;;;;;;;5065425;28;20148;-87
2022/04/20 07:04:41;;;;;;;8.13;5.20;;;;;;;;;;5065259;28;20060;-87
2022/04/20 07:07:07;;;;;;;9.07;5.63;;;;;;;;;;5066168;28;20714;-88
2022/04/20 07:09:34;;;;;;;8.50;5.03;;;;;;;;;;5070595;28;20044;-88
2022/04/20 07:12:00;;;;;;;10.95;6.10;;;;;;;;;;5067045;28;20045;-88
2022/04/20 07:14:29;;;;;;;7.90;5.25;;;;;;;;;;5066289;28;20053;-88
2022/04/20 07:16:55;;;;;;;8.43;5.22;;;;;;;;;;5065436;28;20750;-88
2022/04/20 07:19:22;;;;;;;7.30;4.88;;;;;;;;;;5058417;28;20047;-89
2022/04/20 07:21:48;;;;;;;9.23;6.07;;;;;;;;;;5052734;28;20053;-88
2022/04/20 07:24:15;;;;;;;7.35;5.32;;;;;;;;;;5050565;28;20572;-88
2022/04/20 07:26:41;;;;;;;9.40;5.88;;;;;;;;;;5056071;28;20052;-88
2022/04/20 07:29:08;;;;;;;8.77;5.72;;;;;;;;;;5065899;28;20040;-88
2022/04/20 07:31:36;;;;;;;7.28;5.30;;;;;;;;;;5052928;28;20052;-87
2022/04/20 07:34:02;;;;;;;8.65;5.60;;;;;;;;;;5064995;28;20139;-88
2022/04/20 07:36:29;;;;;;;7.85;5.28;;;;;;;;;;5067587;28;20058;-88
2022/04/20 07:38:55;;;;;;;9.05;5.53;;;;;;;;;;5065854;28;20048;-89
2022/04/20 07:41:22;;;;;;;6.40;4.60;;;;;;;;;;5067477;28;20053;-88
2022/04/20 07:43:49;;;;;;;7.47;5.10;;;;;;;;;;5067379;28;20048;-88
2022/04/20 07:46:17;;;;;;;6.88;4.82;;;;;;;;;;5067253;28;20535;-89
2022/04/20 07:48:45;;;;;;;7.22;4.82;;;;;;;;;;5063580;28;20661;-88
2022/04/20 07:51:12;;;;;;;8.48;4.72;;;;;;;;;;5069244;28;20504;-88
2022/04/20 07:53:39;;;;;;;7.15;4.50;;;;;;;;;;5068283;28;20048;-87
2022/04/20 07:56:06;;;;;;;6.43;4.50;;;;;;;;;;5058948;28;20053;-87
2022/04/20 07:58:33;;;;;;;7.57;4.90;;;;;;;;;;5065594;28;20052;-88
2022/04/20 08:00:59;;;;;;;11.52;4.45;;;;;;;;;;5066445;28;20040;-88
2022/04/20 08:03:26;;;;;;;7.32;4.60;;;;;;;;;;5061791;28;20830;-88
2022/04/20 08:05:56;;;;;;;7.00;4.80;;;;;;;;;;5050544;28;20417;-88
2022/04/20 08:08:24;;;;;;;6.07;4.30;;;;;;;;;;5064437;28;20076;-88
2022/04/20 08:10:51;;;;;;;7.35;4.78;;;;;;;;;;5062798;28;20492;-87
2022/04/20 08:16:01;;;;;;;6.57;4.28;;;;;;;;;;5053987;28;20067;-88
2022/04/20 08:18:28;;;;;;;6.30;4.47;;;;;;;;;;5062261;28;20053;-88
2022/04/20 08:20:56;;;;;;;5.70;4.05;;;;;;;;;;5051028;28;20109;-88
2022/04/20 08:23:24;;;;;;;7.18;3.92;;;;;;;;;;5067441;28;20516;-88
2022/04/20 08:25:51;;;;;;;5.15;3.90;;;;;;;;;;5058122;28;20052;-88
2022/04/20 08:28:17;;;;;;;6.28;4.03;;;;;;;;;;5063294;28;20048;-88
2022/04/20 08:30:44;;;;;;;9.70;3.83;;;;;;;;;;5067780;28;20055;-88
2022/04/20 08:33:11;;;;;;;7.82;4.57;;;;;;;;;;5047879;28;20053;-88
2022/04/20 08:35:38;;;;;;;12.02;4.63;;;;;;;;;;5052601;28;20087;-87
2022/04/20 08:38:06;;;;;;;5.40;3.92;;;;;;;;;;5058058;28;20040;-88
2022/04/20 08:40:34;;;;;;;6.72;4.28;;;;;;;;;;5072913;28;20048;-88
2022/04/20 08:43:02;;;;;;;5.65;3.80;;;;;;;;;;5066529;28;20083;-87
2022/04/20 08:45:29;;;;;;;5.10;3.35;;;;;;;;;;5067641;28;20067;-87
2022/04/20 08:48:01;;;;;;;5.55;3.33;;;;;;;;;;5064349;28;20052;-89
2022/04/20 08:50:29;;;;;;;7.00;4.28;;;;;;;;;;5067611;28;20063;-87
2022/04/20 08:52:58;;;;;;;5.63;3.67;;;;;;;;;;5065351;28;20059;-87
2022/04/20 08:55:26;;;;;;;5.30;3.53;;;;;;;;;;5071233;28;20045;-88
2022/04/20 08:57:53;;;;;;;6.15;3.53;;;;;;;;;;5066131;28;20479;-88
2022/04/20 09:00:22;;;;;;;5.65;3.60;;;;;;;;;;5067289;28;20052;-88
2022/04/20 09:02:52;;;;;;;4.75;3.15;;;;;;;;;;5067100;28;20041;-88
2022/04/20 09:05:18;;;;;;;5.35;3.70;;;;;;;;;;5057169;28;20072;-88
2022/04/20 09:07:45;;;;;;;6.00;3.92;;;;;;;;;;5059164;28;20045;-90
2022/04/20 09:10:12;;;;;;;6.28;3.88;;;;;;;;;;5069600;28;20566;-88
2022/04/20 09:12:45;;;;;;;4.57;3.40;;;;;;;;;;5061144;28;20052;-88
2022/04/20 09:15:14;;;;;;;5.55;3.13;;;;;;;;;;5069403;28;20051;-87
2022/04/20 09:17:44;;;;;;;5.47;3.67;;;;;;;;;;5057339;28;20055;-88
2022/04/20 09:20:16;;;;;;;5.18;3.25;;;;;;;;;;5057012;28;20055;-88
2022/04/20 09:22:58;;;;;;;5.75;3.92;;;;;;;;;;5052714;28;20078;-88
2022/04/20 09:25:30;;;;;;;7.60;3.65;;;;;;;;;;5051200;28;20044;-89
2022/04/20 09:27:58;;;;;;;5.05;3.40;;;;;;;;;;5063969;28;20113;-87
2022/04/20 09:30:25;;;;;;;6.50;3.65;;;;;;;;;;5056186;28;20044;-87
2022/04/20 09:32:52;;;;;;;5.97;3.50;;;;;;;;;;5050481;28;20049;-88
2022/04/20 09:35:20;;;;;;;4.53;3.28;;;;;;;;;;5064265;28;20476;-88
2022/04/20 09:38:04;;;;;;;5.20;3.20;;;;;;;;;;5049684;28;20123;-88
2022/04/20 09:40:36;;;;;;;4.78;3.20;;;;;;;;;;5055789;28;20062;-88
2022/04/20 09:43:06;;;;;;;5.00;3.22;;;;;;;;;;5064113;28;20052;-88
2022/04/20 09:45:33;;;;;;;6.07;2.85;;;;;;;;;;5067916;28;20053;-87
2022/04/20 09:51:08;;;;;;;5.05;3.28;;;;;;;;;;5054513;28;20056;-88
2022/04/20 09:53:35;;;;;;;6.22;3.70;;;;;;;;;;5061366;28;20407;-88
2022/04/20 09:56:18;;;;;;;6.60;3.42;;;;;;;;;;5063110;28;20511;-87
2022/04/20 09:58:46;;;;;;;5.28;3.38;;;;;;;;;;5055833;28;20511;-88
2022/04/20 10:01:25;;;;;;;10.35;3.53;;;;;;;;;;5060615;28;20053;-87
2022/04/20 10:03:54;;;;;;;5.03;3.42;;;;;;;;;;5060232;28;20052;-88
2022/04/20 10:06:20;;;;;;;4.47;2.70;;;;;;;;;;5069017;28;20047;-88
2022/04/20 10:08:47;;;;;;;5.10;3.50;;;;;;;;;;5058984;28;20052;-88
2022/04/20 10:11:15;;;;;;;7.47;4.90;;;;;;;;;;5063195;28;20079;-88
2022/04/20 10:13:42;;;;;;;6.40;4.53;;;;;;;;;;5059024;28;20078;-88
2022/04/20 10:16:12;;;;;;;5.32;3.72;;;;;;;;;;5074007;28;20048;-88
2022/04/20 10:18:40;;;;;;;4.57;3.30;;;;;;;;;;5068013;28;20056;-88
2022/04/20 10:21:11;;;;;;;4.25;2.92;;;;;;;;;;5058211;28;20056;-88
2022/04/20 10:23:40;;;;;;;5.18;2.70;;;;;;;;;;5062140;28;20098;-89
2022/04/20 10:26:08;;;;;;;5.03;2.33;;;;;;;;;;5059173;28;20052;-89
2022/04/20 10:28:41;;;;;;;3.67;2.45;;;;;;;;;;5067765;28;20044;-88
2022/04/20 10:31:18;;;;;;;4.68;2.60;;;;;;;;;;5049865;28;20044;-86
2022/04/20 10:33:45;;;;;;;4.32;2.42;;;;;;;;;;5066901;28;20535;-87
2022/04/20 10:36:15;;;;;;;4.57;3.17;;;;;;;;;;5067360;28;20055;-86
2022/04/20 10:38:44;;;;;;;5.18;3.45;;;;;;;;;;5078380;28;20051;-86
2022/04/20 10:41:12;;;;;;;5.90;3.90;;;;;;;;;;5062606;28;20048;-87
2022/04/20 10:43:40;;;;;;;5.85;3.22;;;;;;;;;;5051905;28;20117;-86
2022/04/20 10:46:14;;;;;;;3.63;2.30;;;;;;;;;;5047072;28;20067;-87
2022/04/20 10:48:55;;;;;;;5.43;3.40;;;;;;;;;;5067720;28;20068;-91
2022/04/20 10:51:24;;;;;;;6.22;3.42;;;;;;;;;;5064940;28;20428;-87
2022/04/20 10:53:53;;;;;;;10.63;3.35;;;;;;;;;;5061809;28;20135;-87
2022/04/20 10:56:21;;;;;;;4.40;2.65;;;;;;;;;;5057077;28;20053;-90
2022/04/20 10:58:52;;;;;;;5.75;3.22;;;;;;;;;;5069539;28;20051;-86
2022/04/20 11:01:20;;;;;;;5.20;2.78;;;;;;;;;;5067298;28;20056;-87
2022/04/20 11:03:53;;;;;;;5.78;3.10;;;;;;;;;;5069284;28;20486;-87
2022/04/20 11:06:20;;;;;;;5.72;2.47;;;;;;;;;;5071134;28;20098;-88
2022/04/20 11:08:50;;;;;;;4.63;2.67;;;;;;;;;;5070193;28;20049;-89
2022/04/20 11:19:58;;;;;;;5.45;3.15;;;;;;;;;;5067090;28;20714;-89
2022/04/20 11:22:26;;;;;;;6.47;3.22;;;;;;;;;;5072899;28;20058;-88
2022/04/20 11:25:00;;;;;;;5.47;2.95;;;;;;;;;;5074827;28;20123;-88
2022/04/20 11:27:33;;;;;;;4.45;2.90;;;;;;;;;;5060117;28;20078;-88
2022/04/20 11:30:00;;;;;;;4.25;2.80;;;;;;;;;;5071112;28;20747;-89
2022/04/20 11:32:29;;;;;;;4.05;2.75;;;;;;;;;;5063420;28;20048;-90
2022/04/20 11:35:06;;;;;;;5.63;3.20;;;;;;;;;;5063688;28;20063;-91
2022/04/20 11:37:33;;;;;;;3.63;2.53;;;;;;;;;;5052024;28;20053;-90
2022/04/20 11:40:00;;;;;;;4.93;2.83;;;;;;;;;;5080205;28;20048;-89
2022/04/20 11:42:27;;;;;;;4.97;3.25;;;;;;;;;;5078404;28;20409;-90
2022/04/20 11:44:53;;;;;;;4.35;3.08;;;;;;;;;;5063867;28;20048;-90
2022/04/20 11:47:22;;;;;;;3.55;2.65;;;;;;;;;;5085144;28;20044;-88
2022/04/20 11:49:50;;;;;;;4.60;3.40;;;;;;;;;;5066372;28;20047;-89
2022/04/20 11:52:21;;;;;;;5.45;3.33;;;;;;;;;;5067587;28;20041;-88
2022/04/20 11:54:48;;;;;;;4.95;2.75;;;;;;;;;;5066594;28;20055;-89
2022/04/20 11:57:21;;;;;;;4.75;3.50;;;;;;;;;;5064668;28;20053;-89
2022/04/20 11:59:48;;;;;;;4.10;3.35;;;;;;;;;;5043897;28;20041;-89
2022/04/20 12:02:16;;;;;;;5.55;3.00;;;;;;;;;;5068152;28;20272;-88
2022/04/20 12:04:46;;;;;;;4.30;2.63;;;;;;;;;;5059381;28;20052;-88
2022/04/20 12:07:16;;;;;;;4.95;3.40;;;;;;;;;;5056046;28;20115;-89
2022/04/20 12:09:45;;;;;;;4.72;2.95;;;;;;;;;;5073014;28;20052;-89
2022/04/20 12:12:15;;;;;;;4.28;2.90;;;;;;;;;;5084199;28;20055;-88
2022/04/20 12:14:42;;;;;;;4.47;2.95;;;;;;;;;;5070654;28;20048;-89
2022/04/20 12:17:14;;;;;;;4.90;2.85;;;;;;;;;;5068202;28;20063;-89
2022/04/20 12:19:41;;;;;;;5.68;3.30;;;;;;;;;;5068977;28;20509;-89
2022/04/20 12:22:09;;;;;;;4.63;2.95;;;;;;;;;;5069816;28;20084;-89
2022/04/20 12:24:38;;;;;;;4.72;3.38;;;;;;;;;;5069403;28;20050;-89
2022/04/20 12:27:05;;;;;;;7.38;3.28;;;;;;;;;;5068590;28;20049;-89
2022/04/20 12:29:33;;;;;;;6.35;3.78;;;;;;;;;;5066934;28;20474;-89
2022/04/20 12:32:01;;;;;;;4.85;3.30;;;;;;;;;;5066802;28;20063;-89
2022/04/20 12:34:29;;;;;;;3.85;2.72;;;;;;;;;;5054339;28;20052;-89
2022/04/20 12:37:03;;;;;;;3.83;3.13;;;;;;;;;;5063847;28;20056;-88
2022/04/20 12:39:32;;;;;;;4.07;2.92;;;;;;;;;;5079783;28;20631;-89
2022/04/20 12:42:02;;;;;;;4.43;2.78;;;;;;;;;;5078700;28;20041;-89
2022/04/20 12:44:39;;;;;;;5.07;3.20;;;;;;;;;;5066360;28;20473;-89
2022/04/20 12:47:34;;;;;;;4.22;3.17;;;;;;;;;;5062342;28;20061;-89
2022/04/20 12:50:21;;;;;;;5.38;3.30;;;;;;;;;;5053127;28;20049;-89
2022/04/20 12:52:53;;;;;;;5.07;3.72;;;;;;;;;;5057244;28;20049;-89
2022/04/20 12:55:20;;;;;;;5.43;3.35;;;;;;;;;;5075300;28;20087;-90
2022/04/20 13:03:35;;;;;;;5.30;3.63;;;;;;;;;;5060748;28;20043;-90
2022/04/20 13:06:03;;;;;;;5.68;3.47;;;;;;;;;;5065285;28;20044;-89
2022/04/20 13:08:30;;;;;;;5.43;3.38;;;;;;;;;;5071274;28;20058;-90
2022/04/20 13:10:58;;;;;;;4.38;2.95;;;;;;;;;;5075701;28;20105;-89
2022/04/20 13:13:29;;;;;;;4.53;3.40;;;;;;;;;;5070681;28;20424;-88
2022/04/20 13:15:57;;;;;;;6.32;3.47;;;;;;;;;;5060858;28;20051;-87
2022/04/20 13:18:24;;;;;;;6.15;3.28;;;;;;;;;;5063490;28;20057;-87
2022/04/20 13:20:55;;;;;;;4.13;2.95;;;;;;;;;;5061520;28;20063;-87
2022/04/20 13:23:21;;;;;;;4.68;3.42;;;;;;;;;;5057890;28;20058;-88
2022/04/20 13:28:33;;;;;;;4.40;3.28;;;;;;;;;;5056719;28;20520;-87
2022/04/20 13:31:01;;;;;;;4.85;3.25;;;;;;;;;;5057830;28;20140;-87
2022/04/20 13:33:27;;;;;;;4.57;3.28;;;;;;;;;;5061320;28;20067;-88
2022/04/20 13:35:55;;;;;;;5.57;3.28;;;;;;;;;;5062887;28;20036;-89
2022/04/20 13:38:22;;;;;;;5.82;3.17;;;;;;;;;;5065648;28;20051;-88
2022/04/20 13:40:49;;;;;;;7.45;3.50;;;;;;;;;;5063655;28;20127;-88
2022/04/20 13:43:16;;;;;;;5.70;3.65;;;;;;;;;;5069858;28;20148;-88
2022/04/20 13:45:44;;;;;;;4.38;3.05;;;;;;;;;;5066198;28;20045;-88
2022/04/20 13:48:11;;;;;;;5.57;3.92;;;;;;;;;;5055650;28;20676;-87
2022/04/20 13:50:38;;;;;;;4.65;3.60;;;;;;;;;;5060389;28;20052;-87
2022/04/20 13:53:09;;;;;;;4.72;3.30;;;;;;;;;;5058861;28;20053;-88
2022/04/20 13:55:36;;;;;;;7.45;3.60;;;;;;;;;;5056500;28;20088;-88
2022/04/20 13:58:03;;;;;;;6.13;3.22;;;;;;;;;;5066443;28;20041;-89
2022/04/20 14:00:30;;;;;;;5.40;3.70;;;;;;;;;;5058430;28;20046;-88
2022/04/20 14:02:58;;;;;;;4.90;3.40;;;;;;;;;;5053374;28;20061;-88
2022/04/20 14:05:25;;;;;;;6.63;3.47;;;;;;;;;;5048917;28;20053;-88
2022/04/20 14:07:52;;;;;;;4.53;3.28;;;;;;;;;;5054261;28;20421;-90
2022/04/20 14:10:19;;;;;;;3.65;2.85;;;;;;;;;;5063639;28;20558;-89
2022/04/20 14:12:45;;;;;;;4.95;3.10;;;;;;;;;;5073229;28;20045;-89
2022/04/20 14:15:14;;;;;;;5.40;3.33;;;;;;;;;;5062230;28;20048;-89
2022/04/20 14:17:42;;;;;;;7.47;3.35;;;;;;;;;;5062795;28;20050;-90
2022/04/20 14:20:12;;;;;;;5.05;3.50;;;;;;;;;;5058897;28;20044;-88
2022/04/20 14:22:39;;;;;;;5.85;3.75;;;;;;;;;;5064307;28;20109;-88
2022/04/20 14:33:22;;;;;;;5.32;2.90;;;;;;;;;;5060585;28;20040;-89
2022/04/20 14:35:50;;;;;;;4.35;3.30;;;;;;;;;;5063322;28;20503;-89
2022/04/20 14:38:17;;;;;;;5.68;3.60;;;;;;;;;;5067612;28;20056;-88
2022/04/20 14:40:43;;;;;;;7.00;3.15;;;;;;;;;;5092509;28;20055;-89
2022/04/20 14:43:10;;;;;;;4.80;2.95;;;;;;;;;;5076013;28;20049;-89
2022/04/20 14:45:36;;;;;;;3.72;2.70;;;;;;;;;;5060892;28;20102;-89
2022/04/20 14:48:03;;;;;;;3.60;2.35;;;;;;;;;;5059932;28;20059;-89
2022/04/20 14:50:30;;;;;;;5.13;2.35;;;;;;;;;;5054204;28;20052;-89
2022/04/20 14:52:58;;;;;;;6.43;3.40;;;;;;;;;;5066089;28;20456;-88
2022/04/20 14:55:24;;;;;;;4.80;2.72;;;;;;;;;;5065501;28;20059;-88
2022/04/20 14:57:51;;;;;;;5.82;2.85;;;;;;;;;;5061086;28;20059;-89
2022/04/20 15:00:18;;;;;;;3.72;2.70;;;;;;;;;;5062004;28;20048;-90
2022/04/20 15:02:48;;;;;;;4.50;3.00;;;;;;;;;;5061613;28;20048;-89
2022/04/20 15:05:15;;;;;;;3.70;2.83;;;;;;;;;;5065142;28;20654;-89
2022/04/20 15:07:41;;;;;;;5.95;3.42;;;;;;;;;;5067871;28;20055;-89
2022/04/20 15:10:09;;;;;;;3.70;2.80;;;;;;;;;;5068012;28;20049;-89
2022/04/20 15:12:36;;;;;;;3.75;2.55;;;;;;;;;;5073553;28;20052;-90
2022/04/20 15:15:03;;;;;;;3.33;2.35;;;;;;;;;;5063691;28;20079;-89
2022/04/20 15:17:39;;;;;;;4.10;2.53;;;;;;;;;;5053557;28;20079;-90
2022/04/20 15:20:06;;;;;;;3.53;2.35;;;;;;;;;;5061415;28;20067;-90
2022/04/20 15:22:33;;;;;;;4.22;2.58;;;;;;;;;;5076244;28;20055;-87
2022/04/20 15:25:00;;;;;;;4.10;2.40;;;;;;;;;;5061563;28;20101;-88
2022/04/20 15:27:27;;;;;;;5.88;2.83;;;;;;;;;;5087630;28;20052;-88
2022/04/20 15:29:54;;;;;;;5.07;3.13;;;;;;;;;;5071746;28;20059;-88
2022/04/20 15:32:22;;;;;;;3.85;2.88;;;;;;;;;;5067604;28;20049;-88
2022/04/20 15:34:49;;;;;;;6.57;3.20;;;;;;;;;;5063453;28;20444;-88